Passa Quatro, Brazil
Current Conditions -  °F | °C
As of 5:00 PM on Wednesday 17 Dec 2014 (Local Time) from SBGW Reporting Station
Scattered Clouds Scattered Clouds  
Wind Chill: 90°   Ceiling: Unl
Heat Index: 90°   Visibility: 6mi
Dew Point: 61°   Wind: 2mph
Humidity: 38%   Direction: 60°ENE
Pressure: 29.83"   Gusts: NA
Location:  22.39°S, 44.97°W
Report Text: SBGW 171900Z 06002KT 9999 SCT030 32/16 Q1010
Loading
Personal Weather Stations






























Interactive Weather Map New forecast layout! Learn more

10-Day Weather Forecast

Advertisements
Track Severe Weather on mobile